createdAt,value
2023-02-17T00:01:27.786Z,24.30
2023-02-17T00:03:54.506Z,21.80
2023-02-17T00:06:24.220Z,22.10
2023-02-17T00:08:51.177Z,20.90
2023-02-17T00:11:18.327Z,21.52
2023-02-17T00:13:45.364Z,21.08
2023-02-17T00:16:17.742Z,23.25
2023-02-17T00:18:44.866Z,22.55
2023-02-17T00:21:16.566Z,22.15
2023-02-17T00:23:44.226Z,22.75
2023-02-17T00:26:10.911Z,23.10
2023-02-17T00:28:37.713Z,24.77
2023-02-17T00:31:13.913Z,25.45
2023-02-17T00:33:40.904Z,22.35
2023-02-17T00:36:10.527Z,21.55
2023-02-17T00:38:37.042Z,23.95
2023-02-17T00:41:03.789Z,24.00
2023-02-17T00:43:30.456Z,24.23
2023-02-17T00:45:57.136Z,23.15
2023-02-17T00:48:24.330Z,22.77
2023-02-17T00:50:50.930Z,22.50
2023-02-17T00:53:17.569Z,21.02
2023-02-17T00:55:44.222Z,22.45
2023-02-17T00:58:10.742Z,20.30
2023-02-17T01:00:37.332Z,20.30
2023-02-17T01:03:04.108Z,20.92
2023-02-17T01:05:30.745Z,17.48
2023-02-17T01:07:57.314Z,20.52
2023-02-17T01:10:23.844Z,17.80
2023-02-17T01:12:50.451Z,20.65
2023-02-17T01:15:17.014Z,19.63
2023-02-17T01:17:43.609Z,16.75
2023-02-17T01:20:10.543Z,17.27
2023-02-17T01:22:38.734Z,19.88
2023-02-17T01:25:05.570Z,18.13
2023-02-17T01:27:32.580Z,15.32
2023-02-17T01:29:59.513Z,15.82
2023-02-17T01:32:26.054Z,14.50
2023-02-17T01:34:53.261Z,16.98
2023-02-17T01:37:19.903Z,16.95
2023-02-17T01:39:46.635Z,15.50
2023-02-17T01:42:17.165Z,17.92
2023-02-17T01:45:14.713Z,17.35
2023-02-17T01:47:41.376Z,15.80
2023-02-17T01:50:08.796Z,13.20
2023-02-17T01:52:35.542Z,16.63
2023-02-17T01:55:07.026Z,14.82
2023-02-17T01:57:35.390Z,13.10
2023-02-17T02:00:02.731Z,11.32
2023-02-17T02:02:31.101Z,11.48
2023-02-17T02:04:58.776Z,14.07
2023-02-17T02:07:34.440Z,12.63
2023-02-17T02:10:01.066Z,12.10
2023-02-17T02:12:35.820Z,14.07
2023-02-17T02:15:07.060Z,11.25
2023-02-17T02:17:49.822Z,10.20
2023-02-17T02:20:32.366Z,9.82
2023-02-17T02:23:31.949Z,10.73
2023-02-17T02:26:29.662Z,10.20
2023-02-17T02:29:05.078Z,9.50
2023-02-17T02:31:56.031Z,9.82
2023-02-17T02:34:26.101Z,11.63
2023-02-17T02:37:17.889Z,10.32
2023-02-17T02:39:48.061Z,9.52
2023-02-17T02:42:17.621Z,9.35
2023-02-17T02:44:44.177Z,7.90
2023-02-17T02:47:41.395Z,8.13
2023-02-17T02:50:09.368Z,8.38
2023-02-17T02:52:54.901Z,8.70
2023-02-17T02:55:35.250Z,8.57
2023-02-17T02:58:24.689Z,6.72
2023-02-17T03:01:04.607Z,7.50
2023-02-17T03:03:39.651Z,7.70
2023-02-17T03:06:22.979Z,7.95
2023-02-17T03:09:12.238Z,6.88
2023-02-17T03:11:39.740Z,7.43
2023-02-17T03:14:09.880Z,7.20
2023-02-17T03:16:37.769Z,6.47
2023-02-17T03:19:04.895Z,7.30
2023-02-17T03:21:43.496Z,8.70
2023-02-17T03:24:10.284Z,7.45
2023-02-17T03:26:36.840Z,6.30
2023-02-17T03:29:03.517Z,7.90
2023-02-17T03:31:31.016Z,6.60
2023-02-17T03:33:58.259Z,6.95
2023-02-17T03:36:24.774Z,7.72
2023-02-17T03:38:51.443Z,7.97
2023-02-17T03:41:18.101Z,6.50
2023-02-17T03:43:44.591Z,7.25
2023-02-17T03:46:12.652Z,6.78
2023-02-17T03:48:39.684Z,6.95
2023-02-17T03:51:17.837Z,7.90
2023-02-17T03:53:45.404Z,8.52
2023-02-17T03:56:13.071Z,8.65
2023-02-17T03:58:41.980Z,7.22
2023-02-17T04:01:09.991Z,9.23
2023-02-17T04:03:37.508Z,8.63
2023-02-17T04:06:04.964Z,8.80
2023-02-17T04:08:32.536Z,7.65
2023-02-17T04:11:01.110Z,8.10
2023-02-17T04:13:28.321Z,8.05
2023-02-17T04:15:55.426Z,8.73
2023-02-17T04:18:22.675Z,8.50
2023-02-17T04:20:50.331Z,9.25
2023-02-17T04:23:17.680Z,11.40
2023-02-17T04:25:44.622Z,10.55
2023-02-17T04:28:11.882Z,10.25
2023-02-17T04:30:38.552Z,9.45
2023-02-17T04:33:06.204Z,9.90
2023-02-17T04:35:33.229Z,12.90
2023-02-17T04:37:59.957Z,9.65
2023-02-17T04:40:26.496Z,10.00
2023-02-17T04:42:52.971Z,9.18
2023-02-17T04:45:19.870Z,9.43
2023-02-17T04:47:46.410Z,9.80
2023-02-17T04:50:13.374Z,10.23
2023-02-17T04:52:39.953Z,11.43
2023-02-17T04:55:07.417Z,10.45
2023-02-17T04:57:34.214Z,13.35
2023-02-17T05:00:00.870Z,10.70
2023-02-17T05:02:28.407Z,9.95
2023-02-17T05:04:55.015Z,10.27
2023-02-17T05:07:21.688Z,11.32
2023-02-17T05:09:48.459Z,8.93
2023-02-17T05:12:15.023Z,10.20
2023-02-17T05:14:41.627Z,10.27
2023-02-17T05:17:08.169Z,9.10
2023-02-17T05:19:34.703Z,9.90
2023-02-17T05:22:01.378Z,10.15
2023-02-17T05:24:27.853Z,9.75
2023-02-17T05:26:54.337Z,11.75
2023-02-17T05:29:20.944Z,9.73
2023-02-17T05:31:47.647Z,8.93
2023-02-17T05:34:14.335Z,8.90
2023-02-17T05:36:40.887Z,7.88
2023-02-17T05:39:09.075Z,10.02
2023-02-17T05:41:35.585Z,9.80
2023-02-17T05:44:03.109Z,9.50
2023-02-17T05:46:29.714Z,12.13
2023-02-17T05:48:56.436Z,7.43
2023-02-17T05:51:22.903Z,8.52
2023-02-17T05:53:49.445Z,7.72
2023-02-17T05:56:16.005Z,8.32
2023-02-17T05:58:42.520Z,7.47
2023-02-17T06:01:10.176Z,7.38
2023-02-17T06:03:36.744Z,8.07
2023-02-17T06:06:04.280Z,7.80
2023-02-17T06:08:31.093Z,8.43
2023-02-17T06:10:57.577Z,8.95
2023-02-17T06:13:24.333Z,8.38
2023-02-17T06:15:50.970Z,8.82
2023-02-17T06:18:17.583Z,14.23
2023-02-17T06:20:47.170Z,9.95
2023-02-17T06:23:13.695Z,9.70
2023-02-17T06:25:40.252Z,7.93
2023-02-17T06:28:07.010Z,7.82
2023-02-17T06:30:33.577Z,7.45
2023-02-17T06:33:00.500Z,8.05
2023-02-17T06:35:27.160Z,7.22
2023-02-17T06:37:53.800Z,8.50
2023-02-17T06:40:20.498Z,9.07
2023-02-17T06:42:47.065Z,8.82
2023-02-17T06:45:13.836Z,7.63
2023-02-17T06:47:40.369Z,7.43
2023-02-17T06:50:07.788Z,7.43
2023-02-17T06:52:35.410Z,7.95
2023-02-17T06:55:01.907Z,9.10
2023-02-17T06:57:28.481Z,7.32
2023-02-17T06:59:56.623Z,7.93
2023-02-17T07:02:24.125Z,7.72
2023-02-17T07:04:50.978Z,7.75
2023-02-17T07:07:17.611Z,7.85
2023-02-17T07:09:44.117Z,7.80
2023-02-17T07:12:10.657Z,7.78
2023-02-17T07:14:38.325Z,8.40
2023-02-17T07:17:05.068Z,7.53
2023-02-17T07:19:31.532Z,7.25
2023-02-17T07:21:58.225Z,7.20
2023-02-17T07:24:24.881Z,7.05
2023-02-17T07:26:53.862Z,7.15
2023-02-17T07:29:20.451Z,7.53
2023-02-17T07:31:47.177Z,7.00
2023-02-17T07:34:13.830Z,7.65
2023-02-17T07:36:40.364Z,7.45
2023-02-17T07:39:08.164Z,6.82
2023-02-17T07:41:34.947Z,7.43
2023-02-17T07:44:01.504Z,7.82
2023-02-17T07:46:28.087Z,8.45
2023-02-17T07:48:56.862Z,7.70
2023-02-17T07:51:24.380Z,7.53
2023-02-17T07:53:51.783Z,7.57
2023-02-17T07:56:21.557Z,7.22
2023-02-17T07:58:48.636Z,6.97
2023-02-17T08:01:20.332Z,7.50
2023-02-17T08:03:47.956Z,7.22
2023-02-17T08:06:17.443Z,8.50
2023-02-17T08:09:02.556Z,7.72
2023-02-17T08:11:49.807Z,6.95
2023-02-17T08:14:16.759Z,8.05
2023-02-17T08:16:43.537Z,7.72
2023-02-17T08:19:10.035Z,8.10
2023-02-17T08:21:36.603Z,7.88
2023-02-17T08:24:03.422Z,9.27
2023-02-17T08:26:29.977Z,8.60
2023-02-17T08:28:56.840Z,8.00
2023-02-17T08:31:25.294Z,7.88
2023-02-17T08:33:52.424Z,8.43
2023-02-17T08:36:22.231Z,8.73
2023-02-17T08:38:51.712Z,9.18
2023-02-17T08:41:22.345Z,8.65
2023-02-17T08:43:50.597Z,8.80
2023-02-17T08:46:18.155Z,7.75
2023-02-17T08:48:44.866Z,8.27
2023-02-17T08:51:23.991Z,7.75
2023-02-17T08:53:51.757Z,8.88
2023-02-17T08:56:18.459Z,8.90
2023-02-17T08:58:45.005Z,8.55
2023-02-17T09:01:12.291Z,7.72
2023-02-17T09:03:39.980Z,8.02
2023-02-17T09:06:07.974Z,8.48
2023-02-17T09:08:35.031Z,8.05
2023-02-17T09:11:01.589Z,10.68
2023-02-17T09:13:28.225Z,8.98
2023-02-17T09:15:54.812Z,9.02
2023-02-17T09:18:22.575Z,8.85
2023-02-17T09:20:49.672Z,9.48
2023-02-17T09:23:16.480Z,7.85
2023-02-17T09:25:43.196Z,9.35
2023-02-17T09:28:09.854Z,9.43
2023-02-17T09:30:36.893Z,8.80
2023-02-17T09:33:05.395Z,7.93
2023-02-17T09:35:33.249Z,7.47
2023-02-17T09:38:00.359Z,8.20
2023-02-17T09:40:50.196Z,8.50
2023-02-17T09:43:25.436Z,7.63
2023-02-17T09:45:59.800Z,7.00
2023-02-17T09:48:30.487Z,8.10
2023-02-17T09:51:10.964Z,9.07
2023-02-17T09:54:01.781Z,8.57
2023-02-17T09:56:38.949Z,8.20
2023-02-17T09:59:37.052Z,8.10
2023-02-17T10:02:08.005Z,7.78
2023-02-17T10:04:39.501Z,7.70
2023-02-17T10:07:12.596Z,7.53
2023-02-17T10:09:56.132Z,7.97
2023-02-17T10:12:26.370Z,8.15
2023-02-17T10:14:54.278Z,7.35
2023-02-17T10:17:35.063Z,7.90
2023-02-17T10:20:07.723Z,6.78
2023-02-17T10:22:34.986Z,7.38
2023-02-17T10:25:02.387Z,7.18
2023-02-17T10:27:43.638Z,8.15
2023-02-17T10:30:48.100Z,6.65
2023-02-17T10:33:22.167Z,6.32
2023-02-17T10:35:51.723Z,6.90
2023-02-17T10:38:27.245Z,6.00
2023-02-17T10:40:55.558Z,6.68
2023-02-17T10:43:29.382Z,5.63
2023-02-17T10:45:56.424Z,5.25
2023-02-17T10:48:50.613Z,4.80
2023-02-17T10:51:23.080Z,4.97
2023-02-17T10:53:55.489Z,5.45
2023-02-17T10:56:26.664Z,4.70
2023-02-17T10:59:07.481Z,5.75
2023-02-17T11:01:34.672Z,4.65
2023-02-17T11:04:03.299Z,4.05
2023-02-17T11:06:31.596Z,5.82
2023-02-17T11:09:04.990Z,4.15
2023-02-17T11:11:34.881Z,3.85
2023-02-17T11:14:07.131Z,3.78
2023-02-17T11:16:46.005Z,3.53
2023-02-17T11:19:24.993Z,5.10
2023-02-17T11:21:57.086Z,3.45
2023-02-17T11:24:23.700Z,3.58
2023-02-17T11:27:05.742Z,3.10
2023-02-17T11:29:34.064Z,3.38
2023-02-17T11:32:10.539Z,3.47
2023-02-17T11:34:39.849Z,3.92
2023-02-17T11:37:09.294Z,2.83
2023-02-17T11:39:44.663Z,3.70
2023-02-17T11:42:17.670Z,4.28
2023-02-17T11:44:44.416Z,3.05
2023-02-17T11:47:27.189Z,3.00
2023-02-17T11:50:02.044Z,3.50
2023-02-17T11:52:47.844Z,2.40
2023-02-17T11:55:27.217Z,3.03
2023-02-17T11:58:05.089Z,3.70
2023-02-17T12:00:46.399Z,2.70
2023-02-17T12:03:39.527Z,2.72
2023-02-17T12:06:33.216Z,2.40
2023-02-17T12:09:19.526Z,2.40
2023-02-17T12:12:14.688Z,3.92
2023-02-17T12:14:44.059Z,2.10
2023-02-17T12:17:10.450Z,3.35
2023-02-17T12:19:56.133Z,3.50
2023-02-17T12:22:25.362Z,3.60
2023-02-17T12:25:10.316Z,2.80
2023-02-17T12:28:01.250Z,3.10
2023-02-17T12:31:11.402Z,3.15
2023-02-17T12:33:58.547Z,2.20
2023-02-17T12:36:30.902Z,2.58
2023-02-17T12:39:00.782Z,2.50
2023-02-17T12:41:35.282Z,3.92
2023-02-17T12:44:14.355Z,2.80
2023-02-17T12:46:46.162Z,4.00
2023-02-17T12:49:25.625Z,2.75
2023-02-17T12:51:55.797Z,3.47
2023-02-17T12:54:38.638Z,3.17
2023-02-17T12:57:15.738Z,4.07
2023-02-17T12:59:47.914Z,2.78
2023-02-17T13:02:17.985Z,2.30
2023-02-17T13:04:47.367Z,2.20
2023-02-17T13:07:27.151Z,2.45
2023-02-17T13:09:55.876Z,2.50
2023-02-17T13:12:22.232Z,3.00
2023-02-17T13:14:57.186Z,2.28
2023-02-17T13:17:24.944Z,2.63
2023-02-17T13:20:06.329Z,3.70
2023-02-17T13:22:32.872Z,4.00
2023-02-17T13:24:59.543Z,2.28
2023-02-17T13:27:29.037Z,3.00
2023-02-17T13:30:18.291Z,2.90
2023-02-17T13:32:45.116Z,3.58
2023-02-17T13:35:14.569Z,2.72
2023-02-17T13:37:43.656Z,2.92
2023-02-17T13:40:16.236Z,3.13
2023-02-17T13:42:45.458Z,3.40
2023-02-17T13:45:24.312Z,2.58
2023-02-17T13:47:52.201Z,4.03
2023-02-17T13:50:46.767Z,3.97
2023-02-17T13:53:21.476Z,4.00
2023-02-17T13:55:48.254Z,3.55
2023-02-17T13:58:14.808Z,4.25
2023-02-17T14:00:44.272Z,3.55
2023-02-17T14:03:24.605Z,3.28
2023-02-17T14:05:53.783Z,5.65
2023-02-17T14:08:36.691Z,4.70
2023-02-17T14:11:08.867Z,4.55
2023-02-17T14:13:37.259Z,3.28
2023-02-17T14:16:06.856Z,4.07
2023-02-17T14:18:39.087Z,5.45
2023-02-17T14:21:11.383Z,3.67
2023-02-17T14:23:47.075Z,5.78
2023-02-17T14:26:29.318Z,4.03
2023-02-17T14:28:57.887Z,5.78
2023-02-17T14:31:24.928Z,4.45
2023-02-17T14:33:54.595Z,5.30
2023-02-17T14:36:29.896Z,5.40
2023-02-17T14:38:58.741Z,5.70
2023-02-17T14:41:25.838Z,7.32
2023-02-17T14:43:52.365Z,6.68
2023-02-17T14:46:19.934Z,7.63
2023-02-17T14:48:50.489Z,5.72
2023-02-17T14:51:20.302Z,6.07
2023-02-17T14:53:47.367Z,6.35
2023-02-17T14:56:25.547Z,5.85
2023-02-17T14:58:55.603Z,6.75
2023-02-17T15:01:24.108Z,7.25
2023-02-17T15:03:51.075Z,8.07
2023-02-17T15:06:33.031Z,8.82
2023-02-17T15:09:00.942Z,9.13
2023-02-17T15:11:34.505Z,8.40
2023-02-17T15:14:02.999Z,9.15
2023-02-17T15:16:30.151Z,9.27
2023-02-17T15:18:58.362Z,8.70
2023-02-17T15:21:33.473Z,7.20
2023-02-17T15:24:01.219Z,8.02
2023-02-17T15:26:30.479Z,8.05
2023-02-17T15:28:57.779Z,8.32
2023-02-17T15:31:25.635Z,7.78
2023-02-17T15:33:57.538Z,7.88
2023-02-17T15:36:24.880Z,8.57
2023-02-17T15:38:51.533Z,9.18
2023-02-17T15:41:21.534Z,8.05
2023-02-17T15:43:48.810Z,7.75
2023-02-17T15:46:17.847Z,8.23
2023-02-17T15:48:48.854Z,8.30
2023-02-17T15:51:20.855Z,8.40
2023-02-17T15:53:47.748Z,7.95
2023-02-17T15:56:24.308Z,7.57
2023-02-17T15:58:51.367Z,7.90
2023-02-17T16:01:29.846Z,8.68
2023-02-17T16:03:57.446Z,9.10
2023-02-17T16:06:28.556Z,8.15
2023-02-17T16:08:55.942Z,8.05
2023-02-17T16:11:23.323Z,7.10
2023-02-17T16:13:50.216Z,7.72
2023-02-17T16:16:26.109Z,8.10
2023-02-17T16:18:52.669Z,8.10
2023-02-17T16:21:19.250Z,7.00
2023-02-17T16:23:48.106Z,6.15
2023-02-17T16:26:18.068Z,6.18
2023-02-17T16:28:45.741Z,6.00
2023-02-17T16:31:12.476Z,4.80
2023-02-17T16:33:39.217Z,4.72
2023-02-17T16:36:18.254Z,4.35
2023-02-17T16:38:45.396Z,4.50
2023-02-17T16:41:17.442Z,4.07
2023-02-17T16:43:45.802Z,4.82
2023-02-17T16:46:30.865Z,4.68
2023-02-17T16:48:58.670Z,4.65
2023-02-17T16:51:25.344Z,4.25
2023-02-17T16:53:52.180Z,4.68
2023-02-17T16:56:21.954Z,4.30
2023-02-17T16:58:48.593Z,3.85
2023-02-17T17:01:15.184Z,3.95
2023-02-17T17:03:42.615Z,3.63
2023-02-17T17:06:19.624Z,3.03
2023-02-17T17:08:46.744Z,3.65
2023-02-17T17:11:16.042Z,3.08
2023-02-17T17:13:43.969Z,3.40
2023-02-17T17:16:21.709Z,2.97
2023-02-17T17:18:48.398Z,3.40
2023-02-17T17:21:16.695Z,3.35
2023-02-17T17:23:43.280Z,3.30
2023-02-17T17:26:19.639Z,3.33
2023-02-17T17:28:49.063Z,4.03
2023-02-17T17:31:16.325Z,3.03
2023-02-17T17:33:43.134Z,3.60
2023-02-17T17:36:18.983Z,4.15
2023-02-17T17:38:45.730Z,3.17
2023-02-17T17:41:13.413Z,3.25
2023-02-17T17:43:40.586Z,4.38
2023-02-17T17:46:16.313Z,3.75
2023-02-17T17:48:43.252Z,4.80
2023-02-17T17:51:12.210Z,5.85
2023-02-17T17:53:38.810Z,4.93
2023-02-17T17:56:06.033Z,3.88
2023-02-17T17:58:34.618Z,3.92
2023-02-17T18:01:01.629Z,5.47
2023-02-17T18:03:28.271Z,3.50
2023-02-17T18:05:54.855Z,3.33
2023-02-17T18:08:21.511Z,4.75
2023-02-17T18:10:48.037Z,4.22
2023-02-17T18:13:16.487Z,4.78
2023-02-17T18:15:43.743Z,4.95
2023-02-17T18:18:12.214Z,6.47
2023-02-17T18:20:38.843Z,6.50
2023-02-17T18:23:05.504Z,7.22
2023-02-17T18:25:32.308Z,5.65
2023-02-17T18:27:59.207Z,5.80
2023-02-17T18:30:27.319Z,4.85
2023-02-17T18:32:54.806Z,4.30
2023-02-17T18:35:21.626Z,4.38
2023-02-17T18:37:48.437Z,6.20
2023-02-17T18:40:17.497Z,3.85
2023-02-17T18:42:45.665Z,8.43
2023-02-17T18:45:13.406Z,6.55
2023-02-17T18:47:40.100Z,4.32
2023-02-17T18:50:07.952Z,5.22
2023-02-17T18:52:34.487Z,5.32
2023-02-17T18:55:01.071Z,7.22
2023-02-17T18:57:27.752Z,8.02
2023-02-17T18:59:54.348Z,4.05
2023-02-17T19:02:22.076Z,5.03
2023-02-17T19:04:48.725Z,3.35
2023-02-17T19:07:15.460Z,6.10
2023-02-17T19:09:44.893Z,5.03
2023-02-17T19:12:13.772Z,4.50
2023-02-17T19:14:41.210Z,7.65
2023-02-17T19:17:09.102Z,4.35
2023-02-17T19:19:37.165Z,3.58
2023-02-17T19:22:08.166Z,3.53
2023-02-17T19:24:38.921Z,5.80
2023-02-17T19:27:06.400Z,6.70
2023-02-17T19:29:33.449Z,2.58
2023-02-17T19:32:01.322Z,4.65
2023-02-17T19:34:29.084Z,6.60
2023-02-17T19:36:55.939Z,8.35
2023-02-17T19:39:22.567Z,5.65
2023-02-17T19:41:49.235Z,6.00
2023-02-17T19:44:15.795Z,4.10
2023-02-17T19:46:42.383Z,2.97
2023-02-17T19:49:08.969Z,4.03
2023-02-17T19:51:35.451Z,4.80
2023-02-17T19:54:02.051Z,3.50
2023-02-17T19:56:31.204Z,3.80
2023-02-17T19:58:58.227Z,3.80
2023-02-17T20:01:30.898Z,4.30
2023-02-17T20:03:58.723Z,3.58
2023-02-17T20:06:30.845Z,2.38
2023-02-17T20:09:00.264Z,3.90
2023-02-17T20:11:29.119Z,8.20
2023-02-17T20:13:57.314Z,3.28
2023-02-17T20:16:23.978Z,2.45
2023-02-17T20:18:50.785Z,2.67
2023-02-17T20:21:23.242Z,6.32
2023-02-17T20:23:50.123Z,4.22
2023-02-17T20:26:21.836Z,2.47
2023-02-17T20:28:48.748Z,3.38
2023-02-17T20:31:15.547Z,2.28
2023-02-17T20:33:42.204Z,3.17
2023-02-17T20:36:09.857Z,5.50
2023-02-17T20:38:37.630Z,2.63
2023-02-17T20:41:05.285Z,5.18
2023-02-17T20:43:31.898Z,4.65
2023-02-17T20:45:58.601Z,3.50
2023-02-17T20:48:27.671Z,4.25
2023-02-17T20:50:58.805Z,3.03
2023-02-17T20:53:26.125Z,2.65
2023-02-17T20:55:53.115Z,4.03
2023-02-17T20:58:20.085Z,5.43
2023-02-17T21:00:47.377Z,4.78
2023-02-17T21:03:14.232Z,3.33
2023-02-17T21:05:41.477Z,6.75
2023-02-17T21:08:08.065Z,4.72
2023-02-17T21:10:34.646Z,5.80
2023-02-17T21:13:01.716Z,4.63
2023-02-17T21:15:28.281Z,4.57
2023-02-17T21:17:54.836Z,5.70
2023-02-17T21:20:22.207Z,4.95
2023-02-17T21:22:49.659Z,5.15
2023-02-17T21:25:16.428Z,3.40
2023-02-17T21:27:42.941Z,3.72
2023-02-17T21:30:10.817Z,4.38
2023-02-17T21:32:37.889Z,4.88
2023-02-17T21:35:04.541Z,3.85
2023-02-17T21:37:31.420Z,5.32
2023-02-17T21:39:58.021Z,4.47
2023-02-17T21:42:53.928Z,5.05
2023-02-17T21:45:20.575Z,5.53
2023-02-17T21:47:47.297Z,8.10
2023-02-17T21:50:13.865Z,8.05
2023-02-17T21:52:40.522Z,9.30
2023-02-17T21:55:07.230Z,3.97
2023-02-17T21:57:33.784Z,6.00
2023-02-17T22:00:00.396Z,4.82
2023-02-17T22:02:26.947Z,4.65
2023-02-17T22:04:56.894Z,7.00
2023-02-17T22:07:23.501Z,9.07
2023-02-17T22:09:50.075Z,3.08
2023-02-17T22:12:16.722Z,5.93
2023-02-17T22:14:43.356Z,6.55
2023-02-17T22:17:10.018Z,5.00
2023-02-17T22:19:36.700Z,3.80
2023-02-17T22:22:03.862Z,4.35
2023-02-17T22:24:30.797Z,8.68
2023-02-17T22:26:57.419Z,4.03
2023-02-17T22:29:23.972Z,5.68
2023-02-17T22:31:53.604Z,3.72
2023-02-17T22:34:20.152Z,7.30
2023-02-17T22:36:46.635Z,6.70
2023-02-17T22:39:13.325Z,4.20
2023-02-17T22:41:40.824Z,5.30
2023-02-17T22:44:07.749Z,7.30
2023-02-17T22:46:34.722Z,4.28
2023-02-17T22:49:01.741Z,4.82
2023-02-17T22:51:36.073Z,5.00
2023-02-17T22:54:03.332Z,4.90
2023-02-17T22:56:30.391Z,5.22
2023-02-17T22:59:00.757Z,4.28
2023-02-17T23:01:29.036Z,4.82
2023-02-17T23:03:55.560Z,4.22
2023-02-17T23:06:25.002Z,2.42
2023-02-17T23:08:52.929Z,4.78
2023-02-17T23:11:42.854Z,5.32
2023-02-17T23:14:10.233Z,5.45
2023-02-17T23:16:37.725Z,4.85
2023-02-17T23:19:09.348Z,4.18
2023-02-17T23:21:36.373Z,4.47
2023-02-17T23:24:03.124Z,4.25
2023-02-17T23:26:29.703Z,5.13
2023-02-17T23:28:56.268Z,3.58
2023-02-17T23:31:22.995Z,3.75
2023-02-17T23:33:49.619Z,2.78
2023-02-17T23:36:16.225Z,3.80
2023-02-17T23:38:42.788Z,5.57
2023-02-17T23:41:10.587Z,5.07
2023-02-17T23:43:37.107Z,5.55
2023-02-17T23:46:03.736Z,3.80
2023-02-17T23:48:30.378Z,4.35
2023-02-17T23:50:58.151Z,2.97
2023-02-17T23:53:24.984Z,5.22
2023-02-17T23:56:01.677Z,3.72
2023-02-17T23:58:28.262Z,5.75
